createdAt,value
2018-09-28T00:01:25.985Z,57.60
2018-09-28T00:03:54.037Z,57.80
2018-09-28T00:06:22.082Z,58.00
2018-09-28T00:08:50.079Z,58.70
2018-09-28T00:11:18.038Z,58.40
2018-09-28T00:13:46.086Z,58.50
2018-09-28T00:16:14.114Z,58.70
2018-09-28T00:18:42.088Z,58.80
2018-09-28T00:21:10.142Z,58.70
2018-09-28T00:23:38.209Z,59.20
2018-09-28T00:26:06.873Z,59.10
2018-09-28T00:28:34.928Z,59.30
2018-09-28T00:31:03.012Z,59.40
2018-09-28T00:33:31.400Z,59.40
2018-09-28T00:35:59.502Z,60.80
2018-09-28T00:38:27.545Z,60.00
2018-09-28T00:40:55.562Z,60.70
2018-09-28T00:43:23.493Z,60.70
2018-09-28T00:45:52.057Z,61.20
2018-09-28T00:48:20.063Z,61.20
2018-09-28T00:50:48.884Z,61.10
2018-09-28T00:53:16.870Z,61.20
2018-09-28T00:55:44.893Z,61.10
2018-09-28T00:58:12.885Z,61.00
2018-09-28T01:00:40.941Z,60.90
2018-09-28T01:03:08.883Z,61.00
2018-09-28T01:05:36.897Z,60.20
2018-09-28T01:08:05.000Z,61.30
2018-09-28T01:10:33.079Z,61.70
2018-09-28T01:13:01.124Z,62.00
2018-09-28T01:15:29.163Z,62.30
2018-09-28T01:17:57.206Z,62.70
2018-09-28T01:20:25.329Z,62.60
2018-09-28T01:22:53.553Z,63.10
2018-09-28T01:25:21.581Z,63.50
2018-09-28T01:27:49.747Z,63.70
2018-09-28T01:30:17.824Z,64.00
2018-09-28T01:32:45.806Z,64.30
2018-09-28T01:35:13.841Z,64.50
2018-09-28T01:37:41.893Z,65.40
2018-09-28T01:40:10.074Z,66.00
2018-09-28T01:42:38.073Z,68.00
2018-09-28T01:45:06.071Z,69.60
2018-09-28T01:47:34.023Z,70.30
2018-09-28T01:50:02.110Z,72.20
2018-09-28T01:52:30.158Z,72.40
2018-09-28T01:54:58.187Z,72.90
2018-09-28T01:57:26.225Z,73.10
2018-09-28T01:59:54.231Z,73.00
2018-09-28T02:02:22.277Z,73.10
2018-09-28T02:04:50.293Z,73.60
2018-09-28T02:07:18.448Z,74.30
2018-09-28T02:09:46.561Z,74.30
2018-09-28T02:12:14.638Z,73.30
2018-09-28T02:14:42.678Z,71.30
2018-09-28T02:17:10.657Z,70.20
2018-09-28T02:19:38.623Z,70.70
2018-09-28T02:22:06.726Z,71.20
2018-09-28T02:24:34.702Z,72.40
2018-09-28T02:27:02.677Z,73.40
2018-09-28T02:29:30.736Z,75.20
2018-09-28T02:31:58.786Z,76.70
2018-09-28T02:34:26.882Z,78.30
2018-09-28T02:36:54.910Z,78.20
2018-09-28T02:39:22.953Z,78.90
2018-09-28T02:41:50.938Z,79.30
2018-09-28T02:44:19.031Z,79.80
2018-09-28T02:46:46.995Z,80.20
2018-09-28T02:49:15.089Z,80.20
2018-09-28T02:51:43.021Z,80.60
2018-09-28T02:54:10.962Z,81.00
2018-09-28T02:56:38.915Z,80.80
2018-09-28T02:59:07.186Z,80.90
2018-09-28T03:01:35.493Z,81.20
2018-09-28T03:04:03.526Z,81.70
2018-09-28T03:06:31.652Z,82.30
2018-09-28T03:08:59.709Z,82.90
2018-09-28T03:11:27.695Z,83.30
2018-09-28T03:13:55.734Z,83.60
2018-09-28T03:16:23.712Z,84.20
2018-09-28T03:18:51.759Z,84.50
2018-09-28T03:21:19.655Z,85.00
2018-09-28T03:23:47.711Z,85.30
2018-09-28T03:26:15.705Z,85.90
2018-09-28T03:28:43.679Z,86.20
2018-09-28T03:31:11.643Z,86.60
2018-09-28T03:33:39.653Z,86.40
2018-09-28T03:36:07.707Z,86.60
2018-09-28T03:38:36.105Z,86.70
2018-09-28T03:41:04.060Z,86.20
2018-09-28T03:43:32.181Z,86.80
2018-09-28T03:46:00.553Z,87.30
2018-09-28T03:48:28.501Z,87.30
2018-09-28T03:50:56.932Z,87.00
2018-09-28T03:53:25.340Z,87.70
2018-09-28T03:55:53.339Z,87.90
2018-09-28T03:58:21.416Z,88.90
2018-09-28T04:00:49.389Z,89.20
2018-09-28T04:03:17.782Z,89.60
2018-09-28T04:05:45.764Z,89.30
2018-09-28T04:08:13.800Z,89.70
2018-09-28T04:10:41.791Z,90.00
2018-09-28T04:13:09.752Z,90.10
2018-09-28T04:15:37.840Z,90.30
2018-09-28T04:18:05.826Z,90.20
2018-09-28T04:20:33.776Z,90.20
2018-09-28T04:23:02.053Z,90.20
2018-09-28T04:25:30.011Z,90.10
2018-09-28T04:27:57.681Z,90.10
2018-09-28T04:30:25.398Z,90.50
2018-09-28T04:32:53.127Z,90.90
2018-09-28T04:35:21.060Z,91.10
2018-09-28T04:37:48.731Z,91.20
2018-09-28T04:40:16.465Z,91.30
2018-09-28T04:42:44.254Z,91.30
2018-09-28T04:45:12.108Z,91.70
2018-09-28T04:47:40.385Z,91.70
2018-09-28T04:50:08.072Z,91.50
2018-09-28T04:52:35.694Z,91.10
2018-09-28T04:55:03.436Z,91.00
2018-09-28T04:57:31.128Z,90.80
2018-09-28T04:59:59.113Z,90.50
2018-09-28T05:02:26.909Z,90.90
2018-09-28T05:04:54.671Z,91.00
2018-09-28T05:07:22.409Z,91.00
2018-09-28T05:09:50.063Z,91.50
2018-09-28T05:12:17.711Z,91.30
2018-09-28T05:14:45.383Z,91.20
2018-09-28T05:17:13.016Z,91.10
2018-09-28T05:19:40.692Z,91.10
2018-09-28T05:22:08.898Z,91.20
2018-09-28T05:24:36.632Z,91.00
2018-09-28T05:27:04.289Z,90.90
2018-09-28T05:29:31.944Z,90.50
2018-09-28T05:31:59.660Z,90.90
2018-09-28T05:34:27.235Z,91.20
2018-09-28T05:36:55.088Z,91.20
2018-09-28T05:39:22.825Z,91.20
2018-09-28T05:41:50.477Z,91.40
2018-09-28T05:44:18.475Z,91.50
2018-09-28T05:46:46.220Z,91.70
2018-09-28T05:49:13.872Z,91.80
2018-09-28T05:51:41.498Z,91.80
2018-09-28T05:54:09.405Z,91.60
2018-09-28T05:56:37.110Z,91.90
2018-09-28T05:59:10.349Z,91.90
2018-09-28T06:01:43.575Z,91.70
2018-09-28T06:04:16.839Z,91.40
2018-09-28T06:06:44.547Z,90.80
2018-09-28T06:09:12.158Z,90.40
2018-09-28T06:11:40.228Z,90.20
2018-09-28T06:14:08.480Z,89.90
2018-09-28T06:16:36.376Z,90.00
2018-09-28T06:19:04.159Z,90.00
2018-09-28T06:21:31.781Z,90.00
2018-09-28T06:23:59.504Z,90.00
2018-09-28T06:26:27.162Z,90.20
2018-09-28T06:28:54.881Z,90.00
2018-09-28T06:31:22.645Z,89.40
2018-09-28T06:33:50.268Z,85.30
2018-09-28T06:36:18.093Z,82.80
2018-09-28T06:38:45.731Z,81.10
2018-09-28T06:41:13.365Z,76.90
2018-09-28T06:43:41.162Z,75.70
2018-09-28T06:46:08.970Z,73.20
2018-09-28T06:48:36.603Z,72.50
2018-09-28T06:51:04.320Z,70.30
2018-09-28T06:53:31.954Z,68.60
2018-09-28T06:55:59.553Z,65.30
2018-09-28T06:58:27.242Z,64.30
2018-09-28T07:00:54.929Z,63.20
2018-09-28T07:03:22.585Z,64.10
2018-09-28T07:05:50.255Z,63.90
2018-09-28T07:08:17.893Z,63.50
2018-09-28T07:10:45.541Z,63.10
2018-09-28T07:13:13.169Z,62.20
2018-09-28T07:15:40.926Z,61.30
2018-09-28T07:18:08.606Z,60.70
2018-09-28T07:20:36.221Z,59.70
2018-09-28T07:23:04.006Z,59.50
2018-09-28T07:25:31.646Z,59.50
2018-09-28T07:27:59.450Z,59.00
2018-09-28T07:30:27.085Z,58.50
2018-09-28T07:32:55.505Z,57.30
2018-09-28T07:35:23.691Z,56.70
2018-09-28T07:37:51.820Z,56.70
2018-09-28T07:40:19.688Z,56.70
2018-09-28T07:42:47.294Z,56.30
2018-09-28T07:45:14.876Z,55.90
2018-09-28T07:47:42.477Z,55.70
2018-09-28T07:50:10.110Z,55.80
2018-09-28T07:52:37.746Z,55.00
2018-09-28T07:55:05.452Z,54.30
2018-09-28T07:57:33.148Z,53.30
2018-09-28T08:00:00.843Z,53.20
2018-09-28T08:02:28.848Z,52.50
2018-09-28T08:04:56.541Z,50.70
2018-09-28T08:07:24.129Z,50.70
2018-09-28T08:09:51.775Z,49.50
2018-09-28T08:12:19.434Z,49.60
2018-09-28T08:14:47.189Z,49.40
2018-09-28T08:17:15.095Z,49.00
2018-09-28T08:19:42.753Z,48.50
2018-09-28T08:22:10.380Z,48.20
2018-09-28T08:24:38.035Z,47.60
2018-09-28T08:27:05.910Z,48.10
2018-09-28T08:29:33.689Z,48.20
2018-09-28T08:32:01.289Z,47.10
2018-09-28T08:34:29.025Z,46.40
2018-09-28T08:36:56.665Z,46.40
2018-09-28T08:39:24.340Z,46.70
2018-09-28T08:41:52.362Z,46.70
2018-09-28T08:44:19.968Z,45.80
2018-09-28T08:46:47.612Z,45.40
2018-09-28T08:49:15.398Z,46.10
2018-09-28T08:51:44.094Z,42.50
2018-09-28T08:54:11.804Z,44.10
2018-09-28T08:56:39.628Z,44.10
2018-09-28T08:59:07.240Z,42.90
2018-09-28T09:01:34.871Z,43.30
2018-09-28T09:04:02.536Z,43.50
2018-09-28T09:06:30.259Z,43.70
2018-09-28T09:08:57.922Z,44.20
2018-09-28T09:11:25.749Z,44.80
2018-09-28T09:13:53.386Z,45.40
2018-09-28T09:16:21.343Z,45.20
2018-09-28T09:18:49.008Z,45.50
2018-09-28T09:21:16.606Z,45.90
2018-09-28T09:23:44.226Z,45.90
2018-09-28T09:26:11.844Z,46.00
2018-09-28T09:28:39.504Z,45.50
2018-09-28T09:31:07.629Z,45.10
2018-09-28T09:33:35.230Z,45.50
2018-09-28T09:36:03.261Z,46.90
2018-09-28T09:38:30.895Z,46.30
2018-09-28T09:40:58.517Z,46.40
2018-09-28T09:43:26.196Z,47.40
2018-09-28T09:45:53.771Z,47.70
2018-09-28T09:48:21.523Z,46.40
2018-09-28T09:50:49.128Z,46.80
2018-09-28T09:53:16.768Z,46.00
2018-09-28T09:55:44.535Z,46.90
2018-09-28T09:58:12.362Z,47.40
2018-09-28T10:00:45.623Z,46.80
2018-09-28T10:03:18.882Z,48.30
2018-09-28T10:05:46.613Z,48.40
2018-09-28T10:08:14.354Z,49.50
2018-09-28T10:10:42.096Z,51.10
2018-09-28T10:13:09.737Z,51.60
2018-09-28T10:15:37.407Z,52.10
2018-09-28T10:18:05.260Z,52.50
2018-09-28T10:20:32.913Z,52.60
2018-09-28T10:23:00.919Z,52.70
2018-09-28T10:25:29.024Z,52.50
2018-09-28T10:27:57.587Z,53.40
2018-09-28T10:30:25.188Z,52.60
2018-09-28T10:32:53.134Z,52.90
2018-09-28T10:35:20.879Z,53.00
2018-09-28T10:37:48.592Z,51.70
2018-09-28T10:40:16.278Z,51.60
2018-09-28T10:42:44.098Z,50.50
2018-09-28T10:45:11.876Z,50.80
2018-09-28T10:47:39.440Z,50.90
2018-09-28T10:50:07.388Z,51.60
2018-09-28T10:52:35.065Z,51.60
2018-09-28T10:55:02.745Z,52.70
2018-09-28T10:57:30.647Z,53.30
2018-09-28T10:59:58.804Z,54.50
2018-09-28T11:02:26.437Z,55.90
2018-09-28T11:04:54.071Z,56.90
2018-09-28T11:07:21.804Z,57.90
2018-09-28T11:09:49.431Z,57.40
2018-09-28T11:12:29.572Z,57.90
2018-09-28T11:14:57.349Z,58.50
2018-09-28T11:17:25.104Z,59.60
2018-09-28T11:19:52.865Z,59.60
2018-09-28T11:22:20.678Z,60.10
2018-09-28T11:24:48.337Z,59.50
2018-09-28T11:27:16.226Z,61.30
2018-09-28T11:29:43.840Z,61.30
2018-09-28T11:32:11.487Z,61.80
2018-09-28T11:34:39.182Z,63.20
2018-09-28T11:37:06.918Z,63.70
2018-09-28T11:39:35.058Z,64.00
2018-09-28T11:42:02.810Z,63.50
2018-09-28T11:44:30.506Z,62.40
2018-09-28T11:46:58.284Z,62.20
2018-09-28T11:49:25.972Z,62.20
2018-09-28T11:51:53.765Z,62.70
2018-09-28T11:54:21.579Z,61.70
2018-09-28T11:56:49.276Z,63.40
2018-09-28T11:59:17.007Z,65.80
2018-09-28T12:01:44.731Z,66.00
2018-09-28T12:04:12.437Z,66.80
2018-09-28T12:06:40.166Z,67.20
2018-09-28T12:09:10.063Z,68.20
2018-09-28T12:11:37.804Z,69.30
2018-09-28T12:14:05.463Z,69.40
2018-09-28T12:16:33.177Z,71.30
2018-09-28T12:19:00.887Z,73.50
2018-09-28T12:21:28.678Z,74.00
2018-09-28T12:23:56.462Z,75.10
2018-09-28T12:26:24.216Z,75.30
2018-09-28T12:28:51.899Z,77.10
2018-09-28T12:31:19.660Z,77.70
2018-09-28T12:33:47.809Z,76.80
2018-09-28T12:36:15.957Z,77.60
2018-09-28T12:38:44.263Z,79.40
2018-09-28T12:41:12.330Z,80.40
2018-09-28T12:43:40.584Z,80.20
2018-09-28T12:46:08.757Z,82.20
2018-09-28T12:48:36.852Z,83.10
2018-09-28T12:51:05.233Z,83.00
2018-09-28T12:53:33.353Z,82.20
2018-09-28T12:56:01.420Z,83.10
2018-09-28T12:58:29.483Z,83.50
2018-09-28T13:00:57.592Z,86.10
2018-09-28T13:03:25.568Z,86.60
2018-09-28T13:05:53.655Z,88.10
2018-09-28T13:08:21.754Z,89.00
2018-09-28T13:10:49.887Z,90.80
2018-09-28T13:13:18.301Z,90.20
2018-09-28T13:15:46.870Z,91.80
2018-09-28T13:18:15.005Z,91.60
2018-09-28T13:20:43.173Z,92.30
2018-09-28T13:23:11.338Z,92.90
2018-09-28T13:25:41.576Z,92.30
2018-09-28T13:28:09.856Z,93.60
2018-09-28T13:30:38.009Z,92.40
2018-09-28T13:33:06.232Z,92.40
2018-09-28T13:35:34.266Z,92.80
2018-09-28T13:38:02.336Z,92.20
2018-09-28T13:40:30.420Z,92.50
2018-09-28T13:42:59.084Z,93.80
2018-09-28T13:45:27.349Z,93.30
2018-09-28T13:47:55.272Z,93.00
2018-09-28T13:50:23.833Z,92.20
2018-09-28T13:52:51.815Z,90.90
2018-09-28T13:55:19.849Z,87.30
2018-09-28T13:57:47.832Z,87.80
2018-09-28T14:00:16.002Z,86.50
2018-09-28T14:02:44.132Z,87.10
2018-09-28T14:05:12.043Z,85.20
2018-09-28T14:07:40.097Z,85.70
2018-09-28T14:10:08.248Z,84.40
2018-09-28T14:12:36.585Z,84.20
2018-09-28T14:15:04.741Z,82.40
2018-09-28T14:17:32.810Z,82.10
2018-09-28T14:20:01.011Z,83.00
2018-09-28T14:22:29.108Z,82.80
2018-09-28T14:24:58.178Z,83.80
2018-09-28T14:27:26.224Z,85.00
2018-09-28T14:29:54.280Z,84.90
2018-09-28T14:32:22.371Z,85.30
2018-09-28T14:34:50.407Z,85.20
2018-09-28T14:37:18.392Z,85.40
2018-09-28T14:39:46.655Z,83.70
2018-09-28T14:42:14.726Z,84.10
2018-09-28T14:44:42.725Z,84.60
2018-09-28T14:47:10.789Z,84.40
2018-09-28T14:49:38.844Z,84.10
2018-09-28T14:52:06.937Z,84.20
2018-09-28T14:54:35.004Z,84.40
2018-09-28T14:57:02.983Z,85.20
2018-09-28T14:59:31.050Z,85.80
2018-09-28T15:01:59.130Z,85.70
2018-09-28T15:04:27.237Z,89.00
2018-09-28T15:06:55.280Z,90.20
2018-09-28T15:09:23.399Z,90.90
2018-09-28T15:11:51.413Z,90.20
2018-09-28T15:14:19.573Z,90.90
2018-09-28T15:16:47.796Z,91.70
2018-09-28T15:19:15.770Z,91.70
2018-09-28T15:21:43.873Z,91.60
2018-09-28T15:24:12.018Z,91.30
2018-09-28T15:26:40.184Z,90.50
2018-09-28T15:29:08.480Z,90.00
2018-09-28T15:31:36.488Z,90.30
2018-09-28T15:34:04.632Z,89.30
2018-09-28T15:36:32.679Z,87.70
2018-09-28T15:39:00.823Z,88.90
2018-09-28T15:41:28.950Z,87.30
2018-09-28T15:43:57.215Z,87.90
2018-09-28T15:46:25.635Z,88.80
2018-09-28T15:48:53.765Z,88.30
2018-09-28T15:51:21.873Z,87.50
2018-09-28T15:53:49.808Z,88.10
2018-09-28T15:56:17.805Z,87.70
2018-09-28T15:58:45.807Z,87.40
2018-09-28T16:01:14.000Z,87.30
2018-09-28T16:03:42.455Z,87.80
2018-09-28T16:06:10.527Z,85.50
2018-09-28T16:08:38.823Z,84.60
2018-09-28T16:11:06.973Z,84.10
2018-09-28T16:13:35.117Z,81.80
2018-09-28T16:16:03.247Z,81.10
2018-09-28T16:18:31.339Z,81.00
2018-09-28T16:20:59.460Z,80.70
2018-09-28T16:23:27.533Z,76.00
2018-09-28T16:25:55.575Z,76.80
2018-09-28T16:28:23.873Z,76.70
2018-09-28T16:30:52.459Z,69.80
2018-09-28T16:33:20.597Z,67.70
2018-09-28T16:35:48.573Z,62.10
2018-09-28T16:38:16.580Z,62.40
2018-09-28T16:40:44.603Z,61.70
2018-09-28T16:43:12.640Z,59.80
2018-09-28T16:45:40.721Z,60.00
2018-09-28T16:48:08.767Z,59.30
2018-09-28T16:50:36.971Z,59.30
2018-09-28T16:53:05.141Z,58.90
2018-09-28T16:55:33.192Z,58.20
2018-09-28T16:58:01.261Z,58.90
2018-09-28T17:00:29.399Z,58.80
2018-09-28T17:02:57.590Z,58.80
2018-09-28T17:05:25.648Z,58.40
2018-09-28T17:07:53.856Z,57.60
2018-09-28T17:10:21.896Z,57.20
2018-09-28T17:12:50.342Z,57.70
2018-09-28T17:15:18.492Z,57.50
2018-09-28T17:17:46.744Z,57.60
2018-09-28T17:20:15.023Z,57.20
2018-09-28T17:22:43.096Z,58.30
2018-09-28T17:25:11.528Z,58.50
2018-09-28T17:27:39.932Z,58.40
2018-09-28T17:30:08.585Z,58.10
2018-09-28T17:32:37.112Z,58.20
2018-09-28T17:35:05.285Z,58.50
2018-09-28T17:37:32.932Z,59.00
2018-09-28T17:40:00.643Z,58.70
2018-09-28T17:42:28.351Z,58.80
2018-09-28T17:44:56.019Z,58.90
2018-09-28T17:47:23.693Z,58.90
2018-09-28T17:49:51.355Z,59.40
2018-09-28T17:52:19.277Z,58.90
2018-09-28T17:54:46.884Z,58.90
2018-09-28T17:57:14.505Z,60.10
2018-09-28T17:59:42.422Z,58.90
2018-09-28T18:02:10.360Z,59.70
2018-09-28T18:04:38.055Z,58.90
2018-09-28T18:07:05.997Z,58.90
2018-09-28T18:09:33.682Z,58.90
2018-09-28T18:12:01.594Z,58.90
2018-09-28T18:14:29.345Z,58.90
2018-09-28T18:16:57.022Z,59.00
2018-09-28T18:19:24.888Z,58.70
2018-09-28T18:21:52.534Z,58.80
2018-09-28T18:24:20.130Z,58.80
2018-09-28T18:26:47.743Z,59.70
2018-09-28T18:29:15.604Z,59.20
2018-09-28T18:31:43.353Z,59.30
2018-09-28T18:34:11.022Z,59.50
2018-09-28T18:36:38.659Z,60.30
2018-09-28T18:39:08.036Z,60.10
2018-09-28T18:41:35.762Z,60.10
2018-09-28T18:44:03.536Z,60.20
2018-09-28T18:46:31.252Z,60.30
2018-09-28T18:49:00.700Z,60.10
2018-09-28T18:51:28.685Z,59.30
2018-09-28T18:53:56.374Z,59.50
2018-09-28T18:56:24.006Z,59.60
2018-09-28T18:58:51.867Z,59.70
2018-09-28T19:01:19.505Z,58.90
2018-09-28T19:03:47.160Z,58.70
2018-09-28T19:06:14.964Z,58.80
2018-09-28T19:08:42.694Z,58.60
2018-09-28T19:11:10.462Z,58.70
2018-09-28T19:13:38.225Z,58.20
2018-09-28T19:16:05.958Z,58.00
2018-09-28T19:18:33.715Z,58.50
2018-09-28T19:21:01.382Z,58.20
2018-09-28T19:23:28.988Z,58.30
2018-09-28T19:25:56.644Z,59.10
2018-09-28T19:28:25.194Z,59.00
2018-09-28T19:30:53.343Z,59.30
2018-09-28T19:33:21.096Z,59.00
2018-09-28T19:35:48.846Z,59.50
2018-09-28T19:38:16.510Z,59.10
2018-09-28T19:40:44.488Z,59.10
2018-09-28T19:43:12.164Z,59.10
2018-09-28T19:45:39.855Z,58.90
2018-09-28T19:48:07.505Z,59.10
2018-09-28T19:50:35.262Z,59.50
2018-09-28T19:53:03.082Z,59.90
2018-09-28T19:55:30.891Z,59.60
2018-09-28T19:57:58.754Z,59.20
2018-09-28T20:00:26.370Z,59.50
2018-09-28T20:02:54.024Z,60.10
2018-09-28T20:05:21.754Z,61.20
2018-09-28T20:07:49.423Z,61.50
2018-09-28T20:10:17.162Z,62.40
2018-09-28T20:12:44.849Z,62.40
2018-09-28T20:15:12.555Z,62.90
2018-09-28T20:17:40.215Z,63.50
2018-09-28T20:20:07.908Z,63.20
2018-09-28T20:22:35.739Z,63.00
2018-09-28T20:25:03.448Z,63.80
2018-09-28T20:27:31.209Z,64.10
2018-09-28T20:29:58.999Z,64.50
2018-09-28T20:32:26.726Z,64.40
2018-09-28T20:34:54.661Z,64.00
2018-09-28T20:37:22.306Z,64.30
2018-09-28T20:39:50.031Z,64.60
2018-09-28T20:42:17.695Z,64.50
2018-09-28T20:44:45.326Z,64.80
2018-09-28T20:47:13.042Z,65.20
2018-09-28T20:49:40.651Z,65.60
2018-09-28T20:52:08.291Z,65.70
2018-09-28T20:54:35.992Z,65.70
2018-09-28T20:57:03.621Z,66.70
2018-09-28T20:59:31.570Z,67.40
2018-09-28T21:01:59.395Z,67.60
2018-09-28T21:04:27.345Z,67.70
2018-09-28T21:06:54.948Z,68.00
2018-09-28T21:09:22.676Z,68.90
2018-09-28T21:11:50.309Z,69.60
2018-09-28T21:14:17.968Z,69.90
2018-09-28T21:16:45.853Z,69.80
2018-09-28T21:19:13.790Z,69.40
2018-09-28T21:21:41.408Z,70.50
2018-09-28T21:24:09.081Z,70.30
2018-09-28T21:26:36.794Z,71.10
2018-09-28T21:29:04.775Z,71.70
2018-09-28T21:31:32.525Z,72.20
2018-09-28T21:34:00.257Z,72.20
2018-09-28T21:36:27.837Z,72.50
2018-09-28T21:38:55.491Z,74.30
2018-09-28T21:41:23.206Z,75.20
2018-09-28T21:43:50.901Z,75.80
2018-09-28T21:46:18.557Z,76.00
2018-09-28T21:48:46.454Z,76.80
2018-09-28T21:51:15.672Z,77.20
2018-09-28T21:53:43.340Z,76.60
2018-09-28T21:56:11.017Z,77.00
2018-09-28T21:58:38.821Z,77.60
2018-09-28T22:01:06.618Z,78.40
2018-09-28T22:03:34.486Z,79.40
2018-09-28T22:06:02.292Z,80.20
2018-09-28T22:08:29.937Z,80.90
2018-09-28T22:10:57.656Z,80.20
2018-09-28T22:13:25.723Z,81.50
2018-09-28T22:15:53.536Z,81.70
2018-09-28T22:18:21.601Z,82.00
2018-09-28T22:20:49.280Z,82.50
2018-09-28T22:23:16.946Z,82.90
2018-09-28T22:25:44.678Z,82.80
2018-09-28T22:28:12.431Z,82.80
2018-09-28T22:30:40.210Z,83.20
2018-09-28T22:33:07.839Z,83.50
2018-09-28T22:35:35.512Z,83.80
2018-09-28T22:38:03.219Z,83.70
2018-09-28T22:40:30.850Z,84.80
2018-09-28T22:42:58.526Z,84.80
2018-09-28T22:45:26.212Z,84.90
2018-09-28T22:47:53.866Z,85.90
2018-09-28T22:50:21.528Z,86.50
2018-09-28T22:52:49.159Z,87.20
2018-09-28T22:55:17.054Z,87.30
2018-09-28T22:57:44.710Z,87.60
2018-09-28T23:00:12.370Z,87.70
2018-09-28T23:02:40.044Z,87.40
2018-09-28T23:05:07.700Z,87.30
2018-09-28T23:07:35.432Z,87.40
2018-09-28T23:10:03.154Z,87.70
2018-09-28T23:12:31.279Z,87.60
2018-09-28T23:14:59.001Z,87.50
2018-09-28T23:17:26.714Z,87.50
2018-09-28T23:19:54.435Z,87.40
2018-09-28T23:22:22.047Z,87.70
2018-09-28T23:24:50.015Z,88.00
2018-09-28T23:27:17.641Z,88.30
2018-09-28T23:29:45.374Z,88.10
2018-09-28T23:32:13.045Z,88.60
2018-09-28T23:34:40.606Z,88.70
2018-09-28T23:37:08.707Z,89.00
2018-09-28T23:39:36.483Z,89.00
2018-09-28T23:42:04.222Z,89.00
2018-09-28T23:44:31.833Z,89.60
2018-09-28T23:46:59.529Z,90.20
2018-09-28T23:49:27.253Z,90.10
2018-09-28T23:51:54.902Z,90.20
2018-09-28T23:54:22.530Z,90.30
2018-09-28T23:56:50.107Z,90.20
2018-09-28T23:59:17.807Z,90.30
